Time;durP1;ratioP1;P1;durP2;ratioP2;P2;SDS_P1;SDS_P2;PMS_P1;PMS_P2;Temp;Humidity;BMP_temperature;BMP_pressure;BME280_temperature;BME280_humidity;BME280_pressure;Samples;Min_cycle;Max_cycle;Signal;HPM_P1;HPM_P2
2023/04/23 00:00:57;;;;;;;4.37;2.50;;;13.80;99.90;;;;;;5019738;28;20174;-91
2023/04/23 00:03:25;;;;;;;4.23;2.80;;;13.80;99.90;;;;;;5036569;28;20213;-92
2023/04/23 00:05:51;;;;;;;3.70;2.97;;;13.70;99.90;;;;;;5035959;28;20170;-92
2023/04/23 00:08:18;;;;;;;4.97;2.87;;;13.70;99.90;;;;;;5061130;28;20201;-91
2023/04/23 00:10:44;;;;;;;5.33;2.70;;;13.70;99.90;;;;;;5035538;28;20221;-92
2023/04/23 00:13:10;;;;;;;4.53;2.87;;;13.70;99.90;;;;;;5021155;28;20232;-91
2023/04/23 00:15:37;;;;;;;4.00;3.00;;;13.60;99.90;;;;;;5042578;28;20166;-91
2023/04/23 00:18:03;;;;;;;3.63;3.23;;;13.60;99.90;;;;;;5038730;28;20197;-91
2023/04/23 00:20:29;;;;;;;3.97;2.80;;;13.60;99.90;;;;;;5039264;28;20203;-92
2023/04/23 00:22:55;;;;;;;3.40;2.80;;;13.60;99.90;;;;;;5045034;28;20181;-90
2023/04/23 00:33:46;;;;;;;5.47;2.60;;;13.50;99.90;;;;;;5052881;28;20161;-91
2023/04/23 00:52:28;;;;;;;3.10;2.50;;;13.50;99.90;;;;;;4933081;29;20283;-92
2023/04/23 00:54:55;;;;;;;3.77;2.57;;;13.40;99.90;;;;;;4918724;29;20740;-91
2023/04/23 00:57:22;;;;;;;4.37;3.10;;;13.40;99.90;;;;;;4988065;28;20304;-91
2023/04/23 00:59:49;;;;;;;3.70;2.80;;;13.30;99.90;;;;;;5010260;28;20185;-91
2023/04/23 01:02:16;;;;;;;3.37;2.83;;;13.30;99.90;;;;;;5018409;28;20209;-91
2023/04/23 01:04:44;;;;;;;3.50;2.53;;;13.20;99.90;;;;;;5022309;28;20197;-91
2023/04/23 01:07:13;;;;;;;3.93;2.80;;;13.20;99.90;;;;;;5039542;28;20224;-91
2023/04/23 01:09:40;;;;;;;5.10;3.13;;;13.20;99.90;;;;;;5043996;28;20185;-91
2023/04/23 01:12:06;;;;;;;6.47;3.13;;;13.20;99.90;;;;;;5061606;28;20173;-91
2023/04/23 01:14:33;;;;;;;5.87;2.87;;;13.20;99.90;;;;;;5035186;28;20188;-91
2023/04/23 01:16:59;;;;;;;5.33;2.70;;;13.20;99.90;;;;;;5024969;28;20212;-92
2023/04/23 01:19:26;;;;;;;4.77;2.50;;;13.20;99.90;;;;;;5023729;28;20182;-92
2023/04/23 01:21:52;;;;;;;3.80;1.90;;;13.20;99.90;;;;;;5024586;28;20216;-91
2023/04/23 01:24:18;;;;;;;2.17;1.90;;;13.20;99.90;;;;;;5031191;28;20211;-91
2023/04/23 01:26:44;;;;;;;3.83;2.00;;;13.10;99.90;;;;;;5039917;28;20288;-91
2023/04/23 01:29:11;;;;;;;2.07;1.47;;;13.10;99.90;;;;;;5040848;28;20326;-91
2023/04/23 01:31:36;;;;;;;1.77;1.30;;;13.10;99.90;;;;;;5039967;28;20177;-90
2023/04/23 01:34:03;;;;;;;2.37;1.60;;;13.00;99.90;;;;;;5037420;28;20186;-91
2023/04/23 01:36:30;;;;;;;1.53;1.43;;;13.10;99.90;;;;;;5021392;28;20190;-91
2023/04/23 01:38:56;;;;;;;2.10;1.20;;;13.10;99.90;;;;;;5027450;28;20656;-91
2023/04/23 01:41:22;;;;;;;1.43;1.10;;;13.10;99.90;;;;;;5044571;28;20180;-91
2023/04/23 01:43:48;;;;;;;1.97;1.20;;;13.00;99.90;;;;;;5042772;28;20207;-91
2023/04/23 01:46:16;;;;;;;1.20;1.10;;;13.10;99.90;;;;;;5061301;28;20178;-91
2023/04/23 01:48:42;;;;;;;2.67;1.30;;;13.00;99.90;;;;;;5043199;28;20200;-91
2023/04/23 01:51:08;;;;;;;1.40;1.30;;;13.00;99.90;;;;;;5040941;28;20197;-91
2023/04/23 01:53:34;;;;;;;1.30;1.20;;;13.00;99.90;;;;;;5024579;28;20174;-91
2023/04/23 01:56:01;;;;;;;1.30;1.10;;;13.00;99.90;;;;;;5024144;28;20324;-91
2023/04/23 01:58:27;;;;;;;2.37;1.30;;;13.00;99.90;;;;;;5027160;28;20420;-91
2023/04/23 02:00:53;;;;;;;2.10;1.10;;;13.00;99.90;;;;;;5042450;28;20182;-91
2023/04/23 02:03:19;;;;;;;1.73;1.33;;;12.90;99.90;;;;;;5059833;28;20267;-91
2023/04/23 02:05:45;;;;;;;2.07;1.10;;;12.90;99.90;;;;;;5044418;28;20266;-91
2023/04/23 02:08:11;;;;;;;1.83;1.20;;;12.90;99.90;;;;;;5060589;28;20290;-91
2023/04/23 02:10:37;;;;;;;2.47;1.30;;;12.90;99.90;;;;;;5043849;28;20266;-91
2023/04/23 02:13:03;;;;;;;2.17;1.70;;;12.90;99.90;;;;;;5044207;28;20173;-91
2023/04/23 02:15:29;;;;;;;2.40;2.20;;;12.90;99.90;;;;;;5024462;28;20189;-91
2023/04/23 02:17:55;;;;;;;2.07;1.93;;;12.80;99.90;;;;;;5024499;28;20211;-91
2023/04/23 02:20:21;;;;;;;1.80;1.70;;;12.80;99.90;;;;;;5036902;28;20193;-91
2023/04/23 02:22:48;;;;;;;1.43;1.33;;;12.80;99.90;;;;;;5020802;28;20192;-91
2023/04/23 02:25:16;;;;;;;2.20;1.30;;;12.80;99.90;;;;;;5020929;28;20208;-92
2023/04/23 02:27:42;;;;;;;1.93;1.20;;;12.80;99.90;;;;;;5055232;28;20226;-91
2023/04/23 02:30:10;;;;;;;1.40;1.30;;;12.80;99.90;;;;;;5037330;28;20184;-92
2023/04/23 02:32:36;;;;;;;1.40;1.30;;;12.80;99.90;;;;;;5037718;28;20261;-91
2023/04/23 02:35:05;;;;;;;2.00;1.40;;;12.80;99.90;;;;;;5049757;28;20181;-92
2023/04/23 02:37:32;;;;;;;1.50;1.40;;;12.80;99.90;;;;;;5040937;28;20202;-91
2023/04/23 02:39:58;;;;;;;2.10;1.20;;;12.80;99.90;;;;;;5040976;28;20239;-91
2023/04/23 02:42:25;;;;;;;1.77;1.00;;;12.70;99.90;;;;;;5032678;28;20270;-90
2023/04/23 02:44:50;;;;;;;2.37;1.10;;;12.70;99.90;;;;;;5044204;28;20209;-92
2023/04/23 02:47:16;;;;;;;2.07;1.30;;;12.70;99.90;;;;;;5017375;28;20247;-91
2023/04/23 02:49:42;;;;;;;1.63;1.40;;;12.70;99.90;;;;;;5001163;28;20170;-91
2023/04/23 02:52:08;;;;;;;1.67;1.27;;;12.70;99.90;;;;;;5017582;28;20201;-91
2023/04/23 02:54:35;;;;;;;1.60;1.20;;;12.80;99.90;;;;;;5017133;28;20254;-91
2023/04/23 02:57:03;;;;;;;2.07;1.40;;;12.80;99.90;;;;;;5021990;28;20205;-91
2023/04/23 02:59:29;;;;;;;1.40;1.30;;;12.70;99.90;;;;;;5040527;28;20204;-92
2023/04/23 03:01:55;;;;;;;1.40;1.30;;;12.70;99.90;;;;;;5037405;28;20183;-91
2023/04/23 03:04:21;;;;;;;1.47;1.37;;;12.70;99.90;;;;;;5047926;28;20204;-92
2023/04/23 03:06:48;;;;;;;1.80;1.33;;;12.60;99.90;;;;;;5040835;28;20216;-91
2023/04/23 03:09:14;;;;;;;1.40;1.30;;;12.60;99.90;;;;;;5056194;28;20333;-91
2023/04/23 03:11:40;;;;;;;1.63;1.40;;;12.60;99.90;;;;;;5040239;28;20178;-92
2023/04/23 03:14:07;;;;;;;2.57;1.33;;;12.60;99.90;;;;;;5037157;28;20282;-92
2023/04/23 03:16:33;;;;;;;1.83;1.30;;;12.50;99.90;;;;;;5036983;28;20230;-91
2023/04/23 03:19:00;;;;;;;1.50;1.40;;;12.50;99.90;;;;;;5036945;28;20216;-91
2023/04/23 03:21:26;;;;;;;2.70;1.50;;;12.50;99.90;;;;;;5036439;28;20178;-92
2023/04/23 03:23:52;;;;;;;2.33;1.57;;;12.50;99.90;;;;;;5040891;28;20201;-91
2023/04/23 03:26:18;;;;;;;1.90;1.33;;;12.50;99.90;;;;;;5039878;28;20641;-91
2023/04/23 03:28:44;;;;;;;1.63;1.50;;;12.50;99.90;;;;;;5038202;28;20191;-91
2023/04/23 03:31:10;;;;;;;1.87;1.70;;;12.50;99.90;;;;;;5039814;28;20173;-92
2023/04/23 03:33:36;;;;;;;2.00;1.80;;;12.50;99.90;;;;;;5039164;28;20191;-91
2023/04/23 03:36:02;;;;;;;2.97;1.70;;;12.60;99.90;;;;;;5020306;28;20195;-91
2023/04/23 03:38:31;;;;;;;1.77;1.50;;;12.50;99.90;;;;;;5019748;28;20208;-91
2023/04/23 03:40:58;;;;;;;1.70;1.57;;;12.50;99.90;;;;;;5019726;28;20271;-91
2023/04/23 03:43:24;;;;;;;1.50;1.40;;;12.50;99.90;;;;;;5019777;28;20185;-91
2023/04/23 03:46:02;;;;;;;1.60;1.50;;;12.50;99.90;;;;;;5038718;28;20169;-91
2023/04/23 03:48:31;;;;;;;2.23;2.03;;;12.50;99.90;;;;;;5019937;28;20190;-92
2023/04/23 03:50:59;;;;;;;2.10;1.87;;;12.50;99.90;;;;;;5020235;28;20272;-92
2023/04/23 03:53:36;;;;;;;2.10;1.93;;;12.50;99.90;;;;;;5026253;28;20161;-92
2023/04/23 03:56:24;;;;;;;2.80;1.93;;;12.50;99.90;;;;;;5052300;28;20211;-91
2023/04/23 03:59:06;;;;;;;4.90;2.40;;;12.40;99.90;;;;;;5023082;28;20177;-91
2023/04/23 04:01:34;;;;;;;4.67;3.20;;;12.40;99.90;;;;;;5036499;28;20212;-91
2023/04/23 04:04:01;;;;;;;2.50;2.30;;;12.40;99.90;;;;;;5041787;28;20188;-91
2023/04/23 04:06:27;;;;;;;3.13;2.37;;;12.40;99.90;;;;;;5055490;28;20180;-91
2023/04/23 04:08:55;;;;;;;2.07;1.87;;;12.40;99.90;;;;;;5039237;28;20256;-91
2023/04/23 04:11:21;;;;;;;2.73;2.13;;;12.30;99.90;;;;;;5055790;28;20232;-92
2023/04/23 04:13:47;;;;;;;3.80;2.30;;;12.30;99.90;;;;;;5053536;28;20181;-91
2023/04/23 04:16:13;;;;;;;2.50;2.20;;;12.20;99.90;;;;;;5038857;28;20181;-91
2023/04/23 04:18:39;;;;;;;2.30;2.10;;;12.20;99.90;;;;;;5037879;28;20268;-91
2023/04/23 04:21:05;;;;;;;2.90;2.60;;;12.20;99.90;;;;;;5038578;28;20194;-91
2023/04/23 04:23:32;;;;;;;4.63;3.60;;;12.20;99.90;;;;;;5053849;28;20219;-92
2023/04/23 04:25:58;;;;;;;3.27;2.97;;;12.20;99.90;;;;;;5043526;28;20177;-92
2023/04/23 04:28:25;;;;;;;2.40;2.20;;;12.20;99.90;;;;;;5059370;28;20207;-91
2023/04/23 04:30:56;;;;;;;3.70;2.20;;;12.20;99.90;;;;;;5055527;28;20188;-91
2023/04/23 04:33:25;;;;;;;3.23;2.30;;;12.10;99.90;;;;;;5061468;28;20181;-91
2023/04/23 04:35:53;;;;;;;3.13;2.67;;;12.10;99.90;;;;;;5018266;28;20249;-91
2023/04/23 04:38:20;;;;;;;4.87;2.33;;;12.10;99.90;;;;;;5036060;28;20204;-90
2023/04/23 04:40:47;;;;;;;5.10;2.70;;;12.00;99.90;;;;;;5052385;28;20200;-91
2023/04/23 04:43:15;;;;;;;3.40;2.63;;;12.00;99.90;;;;;;5053350;28;20199;-92
2023/04/23 04:48:32;;;;;;;3.20;2.40;;;11.90;99.90;;;;;;5069656;28;20212;-31
2023/04/23 04:50:58;;;;;;;2.60;2.40;;;11.90;99.90;;;;;;5053455;28;20178;-31
2023/04/23 04:53:24;;;;;;;3.40;3.10;;;11.90;99.90;;;;;;5069806;28;20187;-31
2023/04/23 04:55:50;;;;;;;4.13;2.53;;;11.90;99.90;;;;;;5080114;28;20180;-31
2023/04/23 04:58:16;;;;;;;2.70;2.50;;;11.80;99.90;;;;;;5056490;28;20214;-30
2023/04/23 05:00:42;;;;;;;4.33;2.80;;;11.90;99.90;;;;;;5071556;28;20213;-32
2023/04/23 05:03:08;;;;;;;3.00;2.70;;;11.90;99.90;;;;;;5077102;28;20188;-32
2023/04/23 05:05:33;;;;;;;4.77;2.67;;;11.90;99.90;;;;;;5089738;28;20223;-32
2023/04/23 05:08:01;;;;;;;2.87;2.57;;;11.90;99.90;;;;;;5084308;28;20171;-31
2023/04/23 05:10:27;;;;;;;2.77;2.27;;;11.90;99.90;;;;;;5083218;28;20187;-32
2023/04/23 05:12:59;;;;;;;3.07;2.43;;;11.90;99.90;;;;;;5079731;28;20178;-32
2023/04/23 05:15:25;;;;;;;5.03;2.50;;;11.80;99.90;;;;;;5072110;28;20301;-32
2023/04/23 05:17:52;;;;;;;3.90;2.50;;;11.90;99.90;;;;;;5068424;28;20211;-33
2023/04/23 05:20:20;;;;;;;2.93;2.57;;;11.90;99.90;;;;;;5083111;28;20255;-30
2023/04/23 05:22:47;;;;;;;3.63;2.50;;;11.90;99.90;;;;;;5071095;28;20210;-30
2023/04/23 05:25:15;;;;;;;4.33;2.77;;;12.00;99.90;;;;;;5080630;28;20205;-32
2023/04/23 05:27:41;;;;;;;3.43;2.50;;;12.10;99.90;;;;;;5079316;28;20179;-31
2023/04/23 05:30:09;;;;;;;2.67;2.47;;;12.10;99.90;;;;;;5081903;28;20195;-31
2023/04/23 05:32:35;;;;;;;5.73;2.60;;;12.20;99.90;;;;;;5087651;28;20221;-31
2023/04/23 05:35:02;;;;;;;3.63;2.43;;;12.30;99.90;;;;;;5071278;28;20197;-31
2023/04/23 05:37:29;;;;;;;3.07;2.50;;;12.40;99.90;;;;;;5068371;28;20183;-30
2023/04/23 05:39:56;;;;;;;4.03;3.67;;;12.40;99.90;;;;;;5086884;28;20184;-31
2023/04/23 05:42:22;;;;;;;3.30;2.70;;;12.50;99.90;;;;;;5068699;28;20191;-29
2023/04/23 05:44:48;;;;;;;2.93;2.20;;;12.50;99.90;;;;;;5079302;28;20199;-30
2023/04/23 05:47:14;;;;;;;3.20;2.50;;;12.50;99.90;;;;;;5087250;28;20201;-31
2023/04/23 05:49:40;;;;;;;2.87;2.43;;;12.50;99.90;;;;;;5085698;28;20176;-30
2023/04/23 05:52:05;;;;;;;3.80;2.67;;;12.50;99.90;;;;;;5085015;28;20175;-30
2023/04/23 05:54:31;;;;;;;2.93;2.40;;;12.40;99.90;;;;;;5074824;28;20197;-30
2023/04/23 05:56:57;;;;;;;3.77;2.20;;;12.50;99.90;;;;;;5077009;28;20176;-30
2023/04/23 05:59:23;;;;;;;2.73;2.30;;;12.60;99.90;;;;;;5084797;28;20697;-30
2023/04/23 06:01:49;;;;;;;2.20;2.00;;;12.70;99.90;;;;;;5087547;28;20198;-31
2023/04/23 06:04:15;;;;;;;2.60;2.07;;;12.70;99.90;;;;;;5088858;28;20764;-31
2023/04/23 06:06:42;;;;;;;1.20;1.10;;;12.80;99.90;;;;;;5088915;28;20184;-30
2023/04/23 06:09:08;;;;;;;1.50;1.40;;;12.80;99.90;;;;;;5075359;28;20175;-30
2023/04/23 06:11:35;;;;;;;1.43;1.20;;;12.90;99.90;;;;;;5087562;28;20180;-30
2023/04/23 06:14:01;;;;;;;1.50;1.40;;;13.10;99.90;;;;;;5067136;28;20267;-31
2023/04/23 06:16:27;;;;;;;1.50;1.40;;;13.10;99.90;;;;;;5077899;28;20263;-30
2023/04/23 06:18:55;;;;;;;2.40;1.33;;;13.10;99.90;;;;;;5082194;28;20278;-31
2023/04/23 06:21:24;;;;;;;2.70;2.03;;;13.10;99.90;;;;;;5058807;28;20184;-30
2023/04/23 06:23:49;;;;;;;3.10;2.03;;;13.10;99.90;;;;;;5093022;28;20211;-31
2023/04/23 06:26:16;;;;;;;2.17;1.90;;;13.10;99.90;;;;;;5074722;28;20181;-31
2023/04/23 06:28:45;;;;;;;1.97;1.50;;;13.10;99.90;;;;;;5070338;28;20181;-30
2023/04/23 06:31:33;;;;;;;1.47;1.37;;;13.10;99.90;;;;;;5074492;28;20181;-30
2023/04/23 06:34:02;;;;;;;1.10;1.00;;;13.10;99.90;;;;;;5080437;28;20215;-31
2023/04/23 06:36:28;;;;;;;1.20;1.10;;;13.20;99.90;;;;;;5084834;28;20279;-31
2023/04/23 06:38:54;;;;;;;1.53;1.20;;;13.30;99.90;;;;;;5086040;28;20263;-30
2023/04/23 06:41:20;;;;;;;1.27;1.17;;;13.30;99.90;;;;;;5087452;28;20177;-31
2023/04/23 06:43:47;;;;;;;1.40;1.30;;;13.40;99.90;;;;;;5083467;28;20235;-31
2023/04/23 06:46:33;;;;;;;2.50;1.83;;;13.40;99.90;;;;;;5087870;28;20181;-31
2023/04/23 06:48:58;;;;;;;1.53;1.10;;;13.50;99.90;;;;;;5084039;28;20242;-30
2023/04/23 06:51:25;;;;;;;1.30;1.20;;;13.40;99.90;;;;;;5082944;28;20208;-31
2023/04/23 06:53:51;;;;;;;1.43;1.00;;;13.50;99.90;;;;;;5084494;28;20216;-30
2023/04/23 06:56:17;;;;;;;1.67;1.10;;;13.40;99.90;;;;;;5072932;28;20222;-30
2023/04/23 06:58:43;;;;;;;1.80;1.23;;;13.50;99.90;;;;;;5091268;28;20231;-30
2023/04/23 07:01:15;;;;;;;1.87;1.20;;;13.50;99.90;;;;;;5052852;28;20189;-30
2023/04/23 07:03:43;;;;;;;1.67;1.57;;;13.60;99.90;;;;;;5065112;28;20215;-31
2023/04/23 07:06:10;;;;;;;1.83;1.03;;;13.70;99.90;;;;;;5084450;28;20169;-31
2023/04/23 07:08:37;;;;;;;1.17;0.90;;;13.90;99.90;;;;;;5047845;28;20181;-33
2023/04/23 07:11:04;;;;;;;1.20;1.07;;;14.00;99.90;;;;;;5063426;28;20180;-31
2023/04/23 07:13:30;;;;;;;1.10;1.00;;;14.10;99.90;;;;;;5080307;28;20276;-30
2023/04/23 07:15:55;;;;;;;1.10;0.90;;;14.20;99.90;;;;;;5080282;28;20276;-30
2023/04/23 07:18:21;;;;;;;1.63;1.00;;;14.20;99.90;;;;;;5085404;28;20182;-32
2023/04/23 07:20:47;;;;;;;1.00;0.90;;;14.20;99.90;;;;;;5091734;28;20173;-30
2023/04/23 07:23:13;;;;;;;0.80;0.80;;;14.30;99.90;;;;;;5089507;28;20185;-31
2023/04/23 07:25:38;;;;;;;1.00;0.90;;;14.40;99.90;;;;;;5091131;28;20192;-31
2023/04/23 07:28:04;;;;;;;1.63;1.00;;;14.50;99.90;;;;;;5089572;28;20196;-32
2023/04/23 07:30:30;;;;;;;0.93;0.80;;;14.50;99.90;;;;;;5092059;28;20173;-31
2023/04/23 07:32:56;;;;;;;1.57;0.87;;;14.50;99.90;;;;;;5090324;28;20181;-30
2023/04/23 07:35:22;;;;;;;0.60;0.60;;;14.60;99.90;;;;;;5089071;28;20211;-31
2023/04/23 07:37:52;;;;;;;1.03;0.80;;;14.70;99.90;;;;;;5091594;28;20183;-30
2023/04/23 07:40:21;;;;;;;0.80;0.80;;;14.70;99.90;;;;;;5090853;28;20227;-31
2023/04/23 07:42:47;;;;;;;1.03;0.77;;;14.80;99.90;;;;;;5079495;28;20177;-30
2023/04/23 07:45:13;;;;;;;0.70;0.70;;;15.00;99.90;;;;;;5070910;28;20204;-30
2023/04/23 07:47:39;;;;;;;1.90;0.90;;;15.10;99.90;;;;;;5084239;28;20192;-30
2023/04/23 07:50:05;;;;;;;1.20;0.80;;;15.20;99.90;;;;;;5088035;28;20181;-30
2023/04/23 07:52:31;;;;;;;1.63;0.80;;;15.10;99.90;;;;;;5084034;28;20189;-31
2023/04/23 07:54:57;;;;;;;0.80;0.80;;;15.00;99.90;;;;;;5071655;28;20193;-30
2023/04/23 07:57:23;;;;;;;1.07;0.80;;;15.20;99.90;;;;;;5078295;28;20688;-31
2023/04/23 07:59:49;;;;;;;1.50;0.80;;;15.40;99.90;;;;;;5071941;28;20267;-31
2023/04/23 08:02:15;;;;;;;0.97;0.80;;;15.70;99.90;;;;;;5090253;28;20181;-29
2023/04/23 08:04:41;;;;;;;0.73;0.73;;;15.80;99.90;;;;;;5089573;28;20204;-30
2023/04/23 08:07:06;;;;;;;1.30;0.93;;;15.80;99.90;;;;;;5088001;28;20184;-31
2023/04/23 08:09:32;;;;;;;1.57;0.97;;;15.80;99.90;;;;;;5090486;28;20173;-31
2023/04/23 08:11:58;;;;;;;1.23;0.90;;;15.80;99.90;;;;;;5073830;28;20176;-30
2023/04/23 08:14:24;;;;;;;0.90;0.83;;;15.80;99.90;;;;;;5072640;28;20211;-32
2023/04/23 08:16:50;;;;;;;0.80;0.70;;;15.70;99.90;;;;;;5090671;28;20176;-31
2023/04/23 08:19:16;;;;;;;1.27;0.80;;;15.80;99.90;;;;;;5056352;28;20187;-30
2023/04/23 08:21:41;;;;;;;1.33;0.60;;;15.90;99.90;;;;;;5084383;28;20207;-30
2023/04/23 08:24:07;;;;;;;0.97;0.90;;;16.10;99.90;;;;;;5083748;28;20300;-31
2023/04/23 08:26:33;;;;;;;0.90;0.90;;;16.30;99.90;;;;;;5086240;28;20183;-30
2023/04/23 08:28:59;;;;;;;1.57;0.80;;;16.30;99.90;;;;;;5087402;28;20173;-32
2023/04/23 08:31:26;;;;;;;0.93;0.87;;;16.30;99.90;;;;;;5088258;28;20176;-31
2023/04/23 08:33:51;;;;;;;1.33;1.00;;;16.20;99.90;;;;;;5072140;28;20204;-30
2023/04/23 08:36:17;;;;;;;2.07;0.80;;;16.20;99.90;;;;;;5072753;28;20191;-30
2023/04/23 08:38:43;;;;;;;2.40;1.00;;;16.10;99.90;;;;;;5072823;28;20263;-32
2023/04/23 08:41:12;;;;;;;1.00;1.00;;;16.10;99.90;;;;;;5092281;28;20661;-31
2023/04/23 08:43:46;;;;;;;0.87;0.87;;;16.10;99.90;;;;;;5091333;28;20208;-31
2023/04/23 08:46:14;;;;;;;1.75;1.00;;;16.10;99.90;;;;;;5089530;28;20199;-30
2023/04/23 08:48:42;;;;;;;1.07;1.00;;;16.10;99.90;;;;;;5090811;28;20180;-30
2023/04/23 08:51:10;;;;;;;1.93;1.83;;;16.10;99.90;;;;;;5072918;28;20185;-31
2023/04/23 08:53:37;;;;;;;0.85;0.85;;;16.20;99.90;;;;;;5073363;28;20283;-31
2023/04/23 08:56:05;;;;;;;1.30;1.00;;;16.40;99.90;;;;;;5091605;28;20180;-30
2023/04/23 08:58:32;;;;;;;1.00;0.82;;;16.50;99.90;;;;;;5084829;28;20177;-31
2023/04/23 09:00:58;;;;;;;2.55;1.00;;;16.60;99.90;;;;;;5090759;28;20172;-30
2023/04/23 09:03:25;;;;;;;0.70;0.70;;;16.70;99.90;;;;;;5089453;28;20187;-30
2023/04/23 09:05:53;;;;;;;1.15;0.90;;;16.80;99.90;;;;;;5089472;28;20204;-30
2023/04/23 09:08:20;;;;;;;1.13;0.90;;;17.00;99.90;;;;;;5090804;28;20169;-31
2023/04/23 09:10:46;;;;;;;2.20;0.80;;;17.20;99.90;;;;;;5072721;28;20689;-31
2023/04/23 09:13:13;;;;;;;0.85;0.80;;;17.30;99.90;;;;;;5089581;28;20184;-31
2023/04/23 09:15:42;;;;;;;1.00;0.90;;;17.50;99.90;;;;;;5045976;28;20238;-32
2023/04/23 09:18:09;;;;;;;1.70;0.90;;;17.80;99.90;;;;;;5062671;28;20185;-30
2023/04/23 09:20:36;;;;;;;0.77;0.70;;;17.80;99.90;;;;;;5069318;28;20184;-31
2023/04/23 09:23:08;;;;;;;0.80;0.80;;;17.70;99.90;;;;;;5070077;28;20237;-30
2023/04/23 09:25:35;;;;;;;0.98;0.90;;;17.60;99.90;;;;;;5089630;28;20208;-30
2023/04/23 09:28:06;;;;;;;1.65;1.00;;;17.60;99.90;;;;;;5089181;28;20173;-31
2023/04/23 09:30:39;;;;;;;1.88;1.00;;;17.60;99.90;;;;;;5084010;28;20177;-31
2023/04/23 09:33:05;;;;;;;1.20;1.10;;;17.70;99.90;;;;;;5093565;28;20200;-31
2023/04/23 09:35:35;;;;;;;1.23;0.95;;;17.90;99.90;;;;;;5096960;28;20211;-31
2023/04/23 09:38:06;;;;;;;1.17;0.90;;;17.90;99.90;;;;;;5077733;28;20241;-31
2023/04/23 09:40:33;;;;;;;1.20;0.88;;;17.80;99.90;;;;;;5073056;28;20177;-31
2023/04/23 09:43:02;;;;;;;2.17;0.98;;;17.80;99.90;;;;;;5093635;28;20176;-31
2023/04/23 09:45:28;;;;;;;0.95;0.85;;;18.00;99.90;;;;;;5080685;28;20217;-30
2023/04/23 09:47:57;;;;;;;1.48;1.02;;;18.10;99.90;;;;;;5074204;28;20192;-31
2023/04/23 09:50:38;;;;;;;0.70;0.70;;;18.20;99.90;;;;;;5072738;28;20177;-31
2023/04/23 09:53:06;;;;;;;1.20;0.98;;;18.20;99.90;;;;;;5074283;28;20173;-31
2023/04/23 09:55:37;;;;;;;1.00;0.90;;;18.40;99.90;;;;;;5073313;28;20205;-31
2023/04/23 09:58:11;;;;;;;2.42;0.85;;;18.60;99.90;;;;;;5084117;28;20195;-31
2023/04/23 10:00:39;;;;;;;1.45;1.10;;;18.80;99.90;;;;;;5090922;28;20184;-31
2023/04/23 10:03:09;;;;;;;1.00;0.85;;;19.00;99.90;;;;;;5065835;28;20242;-32
2023/04/23 10:05:40;;;;;;;1.17;1.08;;;19.30;99.90;;;;;;5081918;28;20207;-32
2023/04/23 10:08:06;;;;;;;1.58;0.85;;;19.60;99.90;;;;;;5093051;28;20234;-31
2023/04/23 10:10:34;;;;;;;1.60;1.50;;;19.90;99.90;;;;;;5089837;28;20196;-31
2023/04/23 10:13:01;;;;;;;2.20;1.00;;;19.80;99.90;;;;;;5072380;28;20176;-30
2023/04/23 10:15:27;;;;;;;2.22;1.20;;;19.80;99.90;;;;;;5089821;28;20228;-30
2023/04/23 10:17:54;;;;;;;1.15;1.05;;;19.80;99.90;;;;;;5073936;28;20176;-31
2023/04/23 10:20:22;;;;;;;1.27;0.90;;;19.90;99.90;;;;;;5074046;28;20211;-32
2023/04/23 10:22:48;;;;;;;0.95;0.90;;;19.80;99.90;;;;;;5091335;28;20181;-32
2023/04/23 10:25:14;;;;;;;0.90;0.90;;;19.90;99.90;;;;;;5082737;28;20204;-31
2023/04/23 10:27:46;;;;;;;0.77;0.77;;;20.00;99.90;;;;;;5083352;28;20173;-31
2023/04/23 10:30:13;;;;;;;1.45;0.82;;;20.00;99.90;;;;;;5068377;28;20176;-31
2023/04/23 10:32:39;;;;;;;1.02;0.82;;;19.90;99.90;;;;;;5094933;28;20180;-32
2023/04/23 10:35:07;;;;;;;0.80;0.80;;;19.80;99.90;;;;;;5092990;28;20205;-33
2023/04/23 10:37:35;;;;;;;1.85;0.90;;;19.70;99.90;;;;;;5076614;28;20203;-31
2023/04/23 10:40:12;;;;;;;0.93;0.88;;;19.90;99.90;;;;;;5037803;28;20181;-31
2023/04/23 10:42:40;;;;;;;0.82;0.82;;;20.00;99.90;;;;;;5070851;28;20209;-30
2023/04/23 10:45:17;;;;;;;0.85;0.85;;;20.10;99.90;;;;;;5089513;28;20209;-30
2023/04/23 10:47:44;;;;;;;1.08;0.98;;;20.40;99.90;;;;;;5087221;28;20188;-31
2023/04/23 10:50:22;;;;;;;0.95;0.93;;;20.50;99.90;;;;;;5085179;28;20211;-31
2023/04/23 10:52:58;;;;;;;0.95;0.70;;;20.30;99.90;;;;;;5092342;28;20184;-31
2023/04/23 10:55:26;;;;;;;0.85;0.70;;;20.30;99.90;;;;;;5082127;28;20231;-32
2023/04/23 10:58:03;;;;;;;4.20;1.10;;;20.40;99.90;;;;;;5091957;28;20260;-31
2023/04/23 11:00:42;;;;;;;0.70;0.70;;;20.40;99.90;;;;;;5079986;28;20180;-32
2023/04/23 11:03:38;;;;;;;0.88;0.80;;;20.50;99.90;;;;;;5092996;28;20254;-32
2023/04/23 11:06:05;;;;;;;1.40;0.90;;;20.60;99.90;;;;;;5092271;28;20227;-33
2023/04/23 11:08:34;;;;;;;2.28;1.23;;;20.60;99.90;;;;;;5095611;28;20211;-32
2023/04/23 11:11:05;;;;;;;0.80;0.80;;;20.60;99.90;;;;;;5092887;28;20225;-33
2023/04/23 11:13:31;;;;;;;1.05;0.98;;;20.80;99.90;;;;;;5091873;28;20201;-32
2023/04/23 11:16:21;;;;;;;0.98;0.80;;;20.90;99.90;;;;;;5091773;28;20180;-33
2023/04/23 11:19:19;;;;;;;1.10;1.05;;;21.00;99.90;;;;;;5075523;28;20177;-32
2023/04/23 11:22:04;;;;;;;1.13;0.90;;;20.90;99.90;;;;;;5089093;28;20175;-32
2023/04/23 11:24:36;;;;;;;0.80;0.80;;;20.80;99.90;;;;;;5085494;28;20237;-32
2023/04/23 11:27:06;;;;;;;1.02;0.93;;;20.70;99.90;;;;;;5087871;28;20212;-33
2023/04/23 11:29:33;;;;;;;2.00;0.95;;;20.60;99.90;;;;;;5083957;28;20183;-34
2023/04/23 11:31:59;;;;;;;0.90;0.90;;;20.40;99.90;;;;;;5093073;28;20172;-33
2023/04/23 11:34:25;;;;;;;0.93;0.90;;;20.30;99.90;;;;;;5057798;28;20200;-32
2023/04/23 11:36:53;;;;;;;3.03;0.80;;;20.20;99.90;;;;;;5086167;28;20275;-33
2023/04/23 11:39:23;;;;;;;1.63;0.90;;;20.20;99.90;;;;;;5092648;28;20254;-32
2023/04/23 11:41:51;;;;;;;0.70;0.70;;;20.40;99.90;;;;;;5085360;28;20184;-33
2023/04/23 11:44:18;;;;;;;0.90;0.90;;;20.50;99.90;;;;;;5072297;28;20277;-33
2023/04/23 11:46:49;;;;;;;1.67;0.90;;;20.40;99.90;;;;;;5082255;28;20189;-33
2023/04/23 11:49:16;;;;;;;1.15;1.05;;;20.00;99.90;;;;;;5059523;28;20177;-33
2023/04/23 11:51:43;;;;;;;1.48;1.00;;;19.70;99.90;;;;;;5073806;28;20190;-32
2023/04/23 11:54:10;;;;;;;1.60;1.00;;;19.60;99.90;;;;;;5091021;28;20196;-32
2023/04/23 11:56:37;;;;;;;2.20;1.23;;;19.70;99.90;;;;;;5090787;28;20185;-32
2023/04/23 11:59:04;;;;;;;0.93;0.77;;;19.80;99.90;;;;;;5083655;28;20176;-33
2023/04/23 12:01:41;;;;;;;1.85;1.00;;;20.10;99.90;;;;;;5080610;28;20180;-32
2023/04/23 12:04:11;;;;;;;0.98;0.98;;;20.40;99.90;;;;;;5089984;28;20208;-33
2023/04/23 12:06:39;;;;;;;1.08;0.98;;;20.70;99.90;;;;;;5090227;28;20180;-32
2023/04/23 12:09:05;;;;;;;1.23;0.95;;;21.00;99.90;;;;;;5073528;28;20259;-31
2023/04/23 12:11:31;;;;;;;1.95;1.05;;;21.30;99.90;;;;;;5091330;28;20172;-33
2023/04/23 12:13:57;;;;;;;1.20;1.10;;;21.60;99.90;;;;;;5090353;28;20204;-32
2023/04/23 12:16:37;;;;;;;1.48;1.00;;;21.90;99.90;;;;;;5090592;28;20187;-33
2023/04/23 12:19:06;;;;;;;1.00;0.90;;;21.60;99.90;;;;;;5073459;28;20226;-35
2023/04/23 12:21:33;;;;;;;0.73;0.73;;;21.50;99.90;;;;;;5073486;28;20200;-32
2023/04/23 12:24:01;;;;;;;1.20;1.10;;;21.10;99.90;;;;;;5073980;28;20235;-33
2023/04/23 12:26:28;;;;;;;2.05;1.02;;;21.00;99.90;;;;;;5073429;28;20242;-33
2023/04/23 12:28:57;;;;;;;2.35;0.90;;;21.40;99.90;;;;;;5081840;28;20196;-32
2023/04/23 12:31:29;;;;;;;1.90;1.20;;;21.80;99.90;;;;;;5091553;28;20187;-33
2023/04/23 12:34:04;;;;;;;1.05;0.80;;;22.00;99.90;;;;;;5073226;28;20197;-32
2023/04/23 12:36:31;;;;;;;2.20;0.90;;;22.10;99.90;;;;;;5073535;28;20228;-33
2023/04/23 12:39:18;;;;;;;1.48;0.93;;;22.10;99.90;;;;;;5073285;28;20180;-32
2023/04/23 12:41:44;;;;;;;1.55;1.00;;;21.90;99.90;;;;;;5091406;28;20168;-32
2023/04/23 12:44:10;;;;;;;0.88;0.82;;;21.60;99.90;;;;;;5090115;28;20223;-32
2023/04/23 12:46:36;;;;;;;1.45;0.75;;;21.40;99.90;;;;;;5091311;28;20216;-33
2023/04/23 12:49:02;;;;;;;1.05;0.95;;;21.10;99.90;;;;;;5089947;28;20175;-33
2023/04/23 12:51:28;;;;;;;1.60;0.93;;;20.60;99.90;;;;;;5091435;28;20228;-32
2023/04/23 12:53:53;;;;;;;1.08;0.90;;;20.40;99.90;;;;;;5091323;28;20188;-32
2023/04/23 12:56:20;;;;;;;2.30;0.90;;;20.10;99.90;;;;;;5073039;28;20173;-32
2023/04/23 12:58:46;;;;;;;1.30;0.82;;;20.10;99.90;;;;;;5061964;28;20172;-32
2023/04/23 13:01:13;;;;;;;1.48;0.98;;;20.40;99.90;;;;;;5053216;28;20181;-32
2023/04/23 13:03:39;;;;;;;1.38;1.00;;;20.70;99.90;;;;;;5069369;28;20201;-32
2023/04/23 13:06:07;;;;;;;0.90;0.90;;;21.10;99.90;;;;;;5052746;28;20184;-32
2023/04/23 13:08:33;;;;;;;2.50;1.00;;;21.30;99.90;;;;;;5070949;28;20181;-32
2023/04/23 13:10:59;;;;;;;0.95;0.95;;;21.60;99.90;;;;;;5053168;28;20193;-33
2023/04/23 13:13:26;;;;;;;1.85;1.00;;;21.70;99.90;;;;;;5069583;28;20173;-33
2023/04/23 13:15:52;;;;;;;1.35;0.85;;;21.50;99.90;;;;;;5071024;28;20208;-32
2023/04/23 13:18:18;;;;;;;1.65;1.05;;;21.10;99.90;;;;;;5052560;28;20189;-32